Time;durP1;ratioP1;P1;durP2;ratioP2;P2;SDS_P1;SDS_P2;PMS_P1;PMS_P2;Temp;Humidity;BMP_temperature;BMP_pressure;BME280_temperature;BME280_humidity;BME280_pressure;Samples;Min_cycle;Max_cycle;Signal;HPM_P1;HPM_P2
2021/07/03 07:00:50;;;;;;;;;13.00;12.00;;;;;22.32;59.52;101108.66;4889001;23;45574;-85
2021/07/03 07:03:15;;;;;;;;;12.33;11.00;;;;;22.28;59.84;101112.34;4865451;29;45421;-87
2021/07/03 07:05:41;;;;;;;;;11.67;11.67;;;;;22.34;60.15;101117.53;4865712;29;45958;-82
2021/07/03 07:08:06;;;;;;;;;11.67;11.67;;;;;22.34;59.55;101109.50;4865816;29;45250;-85
2021/07/03 07:10:32;;;;;;;;;15.33;12.33;;;;;22.39;60.62;101112.06;4860213;29;45221;-86
2021/07/03 07:12:57;;;;;;;;;13.00;12.33;;;;;22.40;60.32;101111.16;4846561;29;45436;-85
2021/07/03 07:15:22;;;;;;;;;12.00;12.00;;;;;22.41;59.60;101115.56;4846396;29;45323;-85
2021/07/03 07:17:48;;;;;;;;;13.00;11.33;;;;;22.40;58.75;101119.19;4845885;29;45391;-86
2021/07/03 07:20:14;;;;;;;;;12.00;10.00;;;;;22.40;58.47;101124.53;4846335;29;45317;-85
2021/07/03 07:22:40;;;;;;;;;11.67;10.33;;;;;22.39;58.94;101122.78;4846790;29;45438;-85
2021/07/03 07:25:06;;;;;;;;;13.33;13.33;;;;;22.48;59.18;101135.94;4846110;29;46282;-85
2021/07/03 07:27:31;;;;;;;;;11.67;11.67;;;;;22.51;58.70;101138.50;4846031;29;45345;-84
2021/07/03 07:29:56;;;;;;;;;9.00;9.00;;;;;22.52;58.27;101134.94;4846231;29;45472;-86
2021/07/03 07:32:22;;;;;;;;;11.33;10.00;;;;;22.54;58.93;101143.81;4844701;29;45578;-84
2021/07/03 07:34:48;;;;;;;;;12.67;11.33;;;;;22.56;58.72;101141.97;4845645;29;45493;-85
2021/07/03 07:37:13;;;;;;;;;12.33;10.67;;;;;22.62;58.56;101140.03;4845471;29;45494;-83
2021/07/03 07:39:39;;;;;;;;;13.00;11.00;;;;;22.66;58.24;101147.97;4845511;29;45470;-83
2021/07/03 07:42:04;;;;;;;;;9.33;8.67;;;;;22.66;57.51;101133.69;4845615;29;45206;-83
2021/07/03 07:44:30;;;;;;;;;9.00;6.00;;;;;22.70;57.60;101147.88;4845121;29;47106;-83
2021/07/03 07:46:55;;;;;;;;;10.67;10.67;;;;;22.74;58.24;101144.19;4844009;29;45341;-84
2021/07/03 07:49:22;;;;;;;;;12.00;10.00;;;;;22.76;56.96;101147.75;4843859;29;45374;-85
2021/07/03 07:51:48;;;;;;;;;14.67;10.00;;;;;22.74;56.95;101161.16;4845758;29;45362;-82
2021/07/03 07:54:13;;;;;;;;;10.67;10.00;;;;;22.74;57.73;101158.47;4845152;29;45316;-84
2021/07/03 07:56:39;;;;;;;;;12.67;11.00;;;;;22.76;56.79;101158.47;4845094;29;45324;-83
2021/07/03 07:59:04;;;;;;;;;11.00;10.67;;;;;22.77;57.36;101153.06;4851974;29;45535;-83
2021/07/03 08:01:29;;;;;;;;;12.67;11.33;;;;;22.82;56.91;101154.72;4863939;29;45454;-83
2021/07/03 08:03:55;;;;;;;;;11.00;11.00;;;;;22.83;57.79;101149.31;4877537;29;46491;-83
2021/07/03 08:06:20;;;;;;;;;12.00;10.67;;;;;22.80;57.39;101141.38;4863660;29;45457;-84
2021/07/03 08:08:46;;;;;;;;;10.67;10.67;;;;;22.78;57.24;101136.03;4862529;29;45440;-84
2021/07/03 08:11:11;;;;;;;;;11.33;9.33;;;;;22.82;57.39;101147.56;4864212;29;45266;-82
2021/07/03 08:13:36;;;;;;;;;11.33;11.00;;;;;22.82;57.35;101147.56;4864170;29;45889;-83
2021/07/03 08:16:02;;;;;;;;;13.00;13.00;;;;;22.80;57.73;101144.06;4864056;29;45445;-86
2021/07/03 08:18:27;;;;;;;;;11.00;10.00;;;;;22.79;57.65;101164.63;4863823;29;45383;-84
2021/07/03 08:20:53;;;;;;;;;12.00;11.67;;;;;22.77;56.82;101161.09;4863567;29;45416;-84
2021/07/03 08:23:19;;;;;;;;;11.00;11.00;;;;;22.76;57.23;101148.59;4863100;29;46363;-83
2021/07/03 08:25:44;;;;;;;;;11.00;9.33;;;;;22.74;57.83;101139.72;4863852;29;45479;-84
2021/07/03 08:28:10;;;;;;;;;11.67;11.67;;;;;22.77;58.17;101150.38;4862422;29;45371;-83
2021/07/03 08:30:36;;;;;;;;;10.33;9.00;;;;;22.75;57.61;101140.63;4863820;29;45486;-83
2021/07/03 08:33:02;;;;;;;;;10.67;10.67;;;;;22.77;57.87;101141.44;4864184;29;46401;-83
2021/07/03 08:35:28;;;;;;;;;11.67;10.00;;;;;22.79;58.49;101153.91;4862123;29;45901;-83
2021/07/03 08:37:53;;;;;;;;;15.33;11.00;;;;;22.77;57.93;101145.00;4862119;29;45321;-86
2021/07/03 08:40:20;;;;;;;;;10.67;10.67;;;;;22.77;57.96;101150.38;4863182;29;45340;-87
2021/07/03 08:42:46;;;;;;;;;15.00;11.00;;;;;22.72;57.95;101144.25;4863960;29;46128;-87
2021/07/03 08:45:12;;;;;;;;;11.67;10.33;;;;;22.66;57.54;101142.63;4862466;29;45432;-86
2021/07/03 08:47:40;;;;;;;;;14.67;11.67;;;;;22.72;58.12;101162.13;4844657;29;45311;-90
2021/07/03 08:50:06;;;;;;;;;14.67;12.67;;;;;22.67;57.42;101151.53;4860119;29;45465;-89
2021/07/03 08:52:31;;;;;;;;;11.67;10.33;;;;;22.59;57.44;101154.38;4846129;29;45335;-90
2021/07/03 08:54:57;;;;;;;;;12.00;11.00;;;;;22.62;58.06;101161.47;4845245;29;45410;-89
2021/07/03 08:57:22;;;;;;;;;12.00;11.00;;;;;22.50;58.85;101171.59;4845298;29;45459;-88
2021/07/03 09:00:14;;;;;;;;;14.33;11.33;;;;;22.44;59.27;101161.91;4846052;29;45405;-88
2021/07/03 09:02:43;;;;;;;;;12.33;11.00;;;;;22.35;58.74;101147.88;4844351;29;45379;-89
2021/07/03 09:05:28;;;;;;;;;17.00;12.33;;;;;22.40;60.52;101157.53;4843436;29;45755;-88
2021/07/03 09:08:06;;;;;;;;;14.33;13.67;;;;;22.32;61.52;101144.34;4845756;29;45180;-88
2021/07/03 09:10:34;;;;;;;;;14.00;12.67;;;;;22.32;61.54;101149.72;4844974;29;45463;-89
2021/07/03 09:13:01;;;;;;;;;16.00;13.33;;;;;22.39;61.40;101165.63;4844599;29;46321;-88
2021/07/03 09:15:28;;;;;;;;;14.33;11.67;;;;;22.37;61.59;101160.31;4843370;29;45420;-87
2021/07/03 09:17:58;;;;;;;;;13.00;11.00;;;;;22.38;61.94;101163.88;4843730;29;45277;-89
2021/07/03 09:20:37;;;;;;;;;15.00;14.00;;;;;22.33;61.83;101169.34;4846336;29;45482;-88
2021/07/03 09:23:10;;;;;;;;;15.00;12.33;;;;;22.33;62.44;101170.22;4844314;29;46564;-88
2021/07/03 09:25:39;;;;;;;;;15.00;13.67;;;;;22.32;61.68;101173.81;4842915;29;45566;-87
2021/07/03 09:28:12;;;;;;;;;13.67;13.33;;;;;22.30;62.51;101175.66;4844086;29;45520;-87
2021/07/03 09:30:38;;;;;;;;;12.00;12.00;;;;;22.19;62.46;101154.50;4844811;29;45446;-86
2021/07/03 09:33:03;;;;;;;;;16.00;13.33;;;;;22.25;61.87;101169.50;4843046;29;47394;-89
2021/07/03 09:35:29;;;;;;;;;13.00;11.33;;;;;22.26;61.73;101182.00;4844592;29;45241;-87
2021/07/03 09:38:08;;;;;;;;;18.33;14.00;;;;;22.24;61.93;101188.31;4845600;29;45349;-89
2021/07/03 09:40:36;;;;;;;;;20.33;16.00;;;;;22.20;62.25;101177.69;4845255;29;45363;-88
2021/07/03 09:43:11;;;;;;;;;15.67;14.00;;;;;22.23;62.00;101187.41;4844569;29;46208;-86
2021/07/03 09:45:38;;;;;;;;;10.67;10.00;;;;;22.24;61.59;101191.88;4845660;29;45416;-82
2021/07/03 09:48:11;;;;;;;;;15.67;15.00;;;;;22.25;61.55;101190.94;4844201;29;45439;-81
2021/07/03 09:50:40;;;;;;;;;11.33;11.33;;;;;22.24;62.16;101183.84;4844853;29;45246;-82
2021/07/03 09:53:07;;;;;;;;;13.00;13.00;;;;;22.27;61.37;101194.44;4845536;29;45349;-80
2021/07/03 09:55:35;;;;;;;;;17.33;12.33;;;;;22.27;61.19;101191.78;4845319;29;45514;-84
2021/07/03 09:58:00;;;;;;;;;14.33;12.67;;;;;22.26;61.20;101198.06;4844939;29;45279;-84
2021/07/03 10:00:26;;;;;;;;;17.67;12.33;;;;;22.29;60.28;101200.66;4844504;29;45709;-86
2021/07/03 10:02:52;;;;;;;;;14.67;12.33;;;;;22.29;59.97;101197.97;4845658;29;45299;-87
2021/07/03 10:05:20;;;;;;;;;13.00;13.00;;;;;22.28;60.75;101201.59;4845015;29;45345;-84
2021/07/03 10:07:53;;;;;;;;;15.67;11.00;;;;;22.26;60.49;101192.72;4844244;29;45767;-86
2021/07/03 10:10:23;;;;;;;;;13.33;11.00;;;;;22.26;61.59;101189.16;4845008;29;45324;-84
2021/07/03 10:13:03;;;;;;;;;14.67;11.00;;;;;22.25;60.78;101185.56;4843845;29;45397;-85
2021/07/03 10:15:31;;;;;;;;;14.00;13.00;;;;;22.27;60.95;101182.88;4843689;29;45407;-82
2021/07/03 10:18:23;;;;;;;;;10.67;9.67;;;;;22.23;59.41;101175.84;4844055;29;45304;-85
2021/07/03 10:20:52;;;;;;;;;11.00;10.00;;;;;22.19;59.34;101177.69;4842896;29;45244;-84
2021/07/03 10:23:18;;;;;;;;;11.33;9.67;;;;;22.21;60.54;101174.06;4844056;29;45545;-85
2021/07/03 10:25:50;;;;;;;;;10.00;9.67;;;;;22.24;60.12;101169.56;4843784;29;45454;-86
2021/07/03 10:28:17;;;;;;;;;10.67;9.00;;;;;22.29;60.12;101168.50;4844029;29;45432;-83
2021/07/03 10:30:45;;;;;;;;;12.00;11.00;;;;;22.31;59.20;101172.06;4845347;29;45426;-86
2021/07/03 10:33:22;;;;;;;;;8.33;8.33;;;;;22.40;57.71;101180.78;4848375;29;45251;-86
2021/07/03 10:35:49;;;;;;;;;10.67;9.00;;;;;22.47;58.46;101185.06;4848202;29;45284;-87
2021/07/03 10:38:26;;;;;;;;;11.00;10.33;;;;;22.53;57.50;101184.00;4848093;29;45864;-83
2021/07/03 10:41:14;;;;;;;;;11.00;9.00;;;;;22.60;57.05;101188.31;4847165;29;45449;-84
2021/07/03 10:43:43;;;;;;;;;8.33;8.00;;;;;22.68;56.81;101180.09;4846163;29;46460;-84
2021/07/03 10:46:08;;;;;;;;;8.00;8.00;;;;;22.83;56.64;101194.00;4846929;29;45391;-78
2021/07/03 10:48:34;;;;;;;;;7.00;7.00;;;;;22.90;55.82;101183.09;4846990;29;45314;-83
2021/07/03 10:51:10;;;;;;;;;6.00;6.00;;;;;23.04;55.64;101184.50;4846887;29;45384;-85
2021/07/03 10:53:35;;;;;;;;;8.33;8.00;;;;;23.18;56.17;101185.91;4846439;29;45439;-80
2021/07/03 10:56:12;;;;;;;;;7.00;7.00;;;;;23.25;55.30;101177.63;4846375;29;45483;-85
2021/07/03 10:58:39;;;;;;;;;7.00;7.00;;;;;23.39;53.75;101183.53;4846580;29;45329;-83
2021/07/03 11:01:08;;;;;;;;;8.33;7.67;;;;;23.46;53.87;101180.63;4846156;29;45431;-83
2021/07/03 11:03:45;;;;;;;;;7.00;7.00;;;;;23.56;51.86;101175.00;4846168;29;45339;-81
2021/07/03 11:06:15;;;;;;;;;8.33;8.00;;;;;23.73;52.33;101176.28;4846623;29;45435;-83
2021/07/03 11:08:40;;;;;;;;;7.00;5.00;;;;;23.84;50.80;101182.19;4846667;29;45242;-82
2021/07/03 11:11:08;;;;;;;;;5.33;5.00;;;;;23.87;50.91;101173.16;4846671;29;45333;-84
2021/07/03 11:13:34;;;;;;;;;9.00;6.00;;;;;23.92;51.52;101182.81;4846371;29;46070;-79
2021/07/03 11:16:02;;;;;;;;;6.00;6.00;;;;;23.99;50.10;101172.78;4846176;29;45317;-78
2021/07/03 11:18:30;;;;;;;;;7.33;5.67;;;;;24.03;49.77;101165.50;4846562;29;45360;-79
2021/07/03 11:21:00;;;;;;;;;7.00;6.00;;;;;24.15;50.47;101170.50;4846957;29;45400;-81
2021/07/03 11:23:26;;;;;;;;;6.00;6.00;;;;;24.23;50.01;101172.06;4846093;29;46329;-79
2021/07/03 11:25:52;;;;;;;;;5.33;5.00;;;;;24.27;49.15;101161.16;4846101;29;45399;-79
2021/07/03 11:28:20;;;;;;;;;3.00;3.00;;;;;24.31;48.42;101171.78;4846183;29;45384;-79
2021/07/03 11:30:48;;;;;;;;;5.33;5.33;;;;;24.27;48.03;101155.78;4846928;29;45539;-81
2021/07/03 11:33:14;;;;;;;;;6.33;5.00;;;;;24.35;48.82;101146.56;4845928;29;45361;-82
2021/07/03 11:35:45;;;;;;;;;5.00;5.00;;;;;24.56;48.22;101157.53;4845992;29;45427;-81
2021/07/03 11:38:12;;;;;;;;;6.67;5.67;;;;;24.77;48.02;101147.81;4845963;29;45401;-80
2021/07/03 11:40:37;;;;;;;;;5.67;5.67;;;;;24.99;49.00;101147.06;4846121;29;45278;-79
2021/07/03 11:43:04;;;;;;;;;5.67;5.33;;;;;25.16;48.36;101145.56;4845249;29;46091;-79
2021/07/03 11:45:33;;;;;;;;;6.00;5.33;;;;;25.29;46.58;101148.66;4846085;29;45336;-82
2021/07/03 11:48:15;;;;;;;;;7.00;6.00;;;;;25.38;47.07;101147.44;4845985;29;45386;-79
2021/07/03 11:50:46;;;;;;;;;5.33;5.00;;;;;25.46;44.26;101148.00;4846222;29;45337;-81
2021/07/03 11:53:13;;;;;;;;;6.00;6.00;;;;;25.50;44.88;101143.38;4846350;29;45705;-89
2021/07/03 11:55:47;;;;;;;;;3.33;3.33;;;;;25.61;45.10;101143.84;4846886;29;45362;-88
2021/07/03 11:58:38;;;;;;;;;10.33;10.33;;;;;25.83;42.80;101144.81;4847830;29;45336;-90
2021/07/03 12:01:14;;;;;;;;;2.00;2.00;;;;;25.93;42.77;101153.41;4844576;29;45251;-77
2021/07/03 12:03:43;;;;;;;;;3.00;3.00;;;;;25.94;42.94;101145.25;4846049;29;45332;-80
2021/07/03 12:06:09;;;;;;;;;2.00;2.00;;;;;25.97;41.92;101142.44;4845525;29;45400;-82
2021/07/03 12:08:41;;;;;;;;;5.00;3.00;;;;;25.97;41.63;101149.66;4845555;29;45371;-83
2021/07/03 12:11:09;;;;;;;;;3.00;3.00;;;;;26.01;41.92;101152.16;4845891;29;45329;-82
2021/07/03 12:13:49;;;;;;;;;3.00;1.00;;;;;25.99;41.04;101140.56;4859527;29;48316;-81
2021/07/03 12:16:18;;;;;;;;;3.00;3.00;;;;;26.00;41.12;101136.91;4844167;29;45344;-85
2021/07/03 12:18:50;;;;;;;;;4.67;4.00;;;;;25.96;39.57;101138.00;4845416;29;45319;-83
2021/07/03 12:21:20;;;;;;;;;5.00;4.00;;;;;25.82;40.63;101146.66;4845514;29;45356;-82
2021/07/03 12:23:46;;;;;;;;;4.67;4.00;;;;;25.72;41.33;101139.88;4845562;29;45306;-85
2021/07/03 12:26:13;;;;;;;;;3.33;3.33;;;;;25.65;40.40;101139.22;4845486;29;45412;-80
2021/07/03 12:28:58;;;;;;;;;3.00;3.00;;;;;25.60;42.17;101141.19;4845613;29;45309;-83
2021/07/03 12:31:35;;;;;;;;;4.67;3.00;;;;;25.58;41.85;101129.63;4845624;29;45304;-82
2021/07/03 12:34:12;;;;;;;;;5.33;4.33;;;;;25.54;41.82;101131.56;4846452;29;45154;-81
2021/07/03 12:36:43;;;;;;;;;4.00;4.00;;;;;25.47;41.89;101130.91;4844912;29;45410;-82
2021/07/03 12:39:10;;;;;;;;;5.00;5.00;;;;;25.42;41.97;101127.53;4846377;29;45357;-83
2021/07/03 12:41:38;;;;;;;;;4.33;4.00;;;;;25.32;41.84;101122.50;4846344;29;45553;-82
2021/07/03 12:44:04;;;;;;;;;5.33;4.00;;;;;25.30;42.68;101129.75;4846335;29;46469;-86
2021/07/03 12:46:34;;;;;;;;;5.33;4.00;;;;;25.25;42.16;101125.50;4846785;29;45336;-87
2021/07/03 12:49:00;;;;;;;;;5.00;5.00;;;;;25.27;43.34;101119.13;4847613;29;45269;-89
2021/07/03 12:51:43;;;;;;;;;5.00;3.67;;;;;25.31;43.11;101130.66;4847750;29;45307;-87
2021/07/03 12:54:10;;;;;;;;;3.67;3.67;;;;;25.28;43.43;101118.19;4847076;29;45380;-89
2021/07/03 12:56:36;;;;;;;;;3.67;3.00;;;;;25.26;42.47;101121.88;4846831;29;45252;-88
2021/07/03 12:59:08;;;;;;;;;4.00;4.00;;;;;25.13;42.28;101116.09;4847543;29;45323;-84
2021/07/03 13:01:37;;;;;;;;;4.33;3.00;;;;;25.06;43.77;101119.03;4861565;29;45338;-88
2021/07/03 13:04:04;;;;;;;;;5.33;5.33;;;;;25.04;44.86;101118.22;4847345;29;45565;-89
2021/07/03 13:06:30;;;;;;;;;5.00;5.00;;;;;25.02;44.87;101114.69;4847316;29;45272;-89
2021/07/03 13:08:56;;;;;;;;;5.00;5.00;;;;;24.98;44.76;101115.75;4849126;29;45421;-89
2021/07/03 13:11:23;;;;;;;;;7.33;7.33;;;;;24.92;44.33;101110.53;4854578;29;45567;-87
2021/07/03 13:13:50;;;;;;;;;6.00;6.00;;;;;24.83;45.17;101112.63;4853890;29;45332;-81
2021/07/03 13:16:15;;;;;;;;;9.00;7.00;;;;;24.77;45.32;101117.38;4854420;29;45309;-85
2021/07/03 13:18:41;;;;;;;;;6.00;6.00;;;;;24.71;45.22;101113.09;4855048;29;45149;-87
2021/07/03 13:21:06;;;;;;;;;8.00;7.00;;;;;24.72;45.97;101110.38;4852007;29;45155;-84
2021/07/03 13:23:34;;;;;;;;;7.33;6.33;;;;;24.72;46.08;101109.47;4851504;29;46138;-88
2021/07/03 13:26:00;;;;;;;;;5.33;4.33;;;;;24.72;46.07;101113.06;4854642;29;45535;-84
2021/07/03 13:28:26;;;;;;;;;6.67;6.67;;;;;24.68;46.19;101107.84;4855186;29;45292;-84
2021/07/03 13:30:52;;;;;;;;;7.00;7.00;;;;;24.65;45.80;101106.13;4850715;29;45380;-87
2021/07/03 13:33:17;;;;;;;;;7.00;7.00;;;;;24.62;46.09;101106.25;4849170;29;46636;-80
2021/07/03 13:35:43;;;;;;;;;9.33;8.00;;;;;24.55;46.78;101094.84;4846887;29;45415;-81
2021/07/03 13:38:08;;;;;;;;;9.33;7.00;;;;;24.56;46.86;101103.78;4846714;29;45248;-83
2021/07/03 13:40:35;;;;;;;;;7.33;6.00;;;;;24.54;46.38;101111.03;4846551;29;45240;-81
2021/07/03 13:43:00;;;;;;;;;7.00;7.00;;;;;24.47;47.44;101105.00;4846163;29;45404;-82
2021/07/03 13:45:26;;;;;;;;;8.67;6.00;;;;;24.45;46.86;101104.16;4845459;29;45164;-80
2021/07/03 13:47:51;;;;;;;;;8.00;6.33;;;;;24.42;46.83;101096.19;4845625;29;45253;-85
2021/07/03 13:50:18;;;;;;;;;7.00;7.00;;;;;24.42;47.26;101104.25;4846361;29;45284;-88
2021/07/03 13:52:44;;;;;;;;;6.67;6.67;;;;;24.37;47.05;101091.88;4846469;29;45326;-87
2021/07/03 13:55:10;;;;;;;;;7.33;7.33;;;;;24.43;47.37;101100.66;4847310;29;45344;-86
2021/07/03 13:57:35;;;;;;;;;7.00;7.00;;;;;24.32;47.35;101088.47;4851560;29;45486;-86
2021/07/03 14:00:01;;;;;;;;;6.67;6.67;;;;;24.36;47.59;101092.81;4852267;29;45324;-86
2021/07/03 14:02:27;;;;;;;;;6.00;6.00;;;;;24.40;47.39;101101.63;4845342;29;45303;-87
2021/07/03 14:04:52;;;;;;;;;11.33;9.67;;;;;24.31;48.56;101078.66;4845383;29;45308;-85
2021/07/03 14:07:18;;;;;;;;;8.00;6.67;;;;;24.33;47.52;101079.47;4845059;29;45822;-84
2021/07/03 14:09:43;;;;;;;;;10.67;7.67;;;;;24.45;47.96;101102.34;4845711;29;45323;-85
2021/07/03 14:12:09;;;;;;;;;10.00;7.33;;;;;24.39;48.85;101090.00;4843859;29;45923;-85
2021/07/03 14:14:36;;;;;;;;;12.00;9.00;;;;;24.46;48.78;101090.66;4845565;29;45371;-85
2021/07/03 14:17:03;;;;;;;;;7.67;7.00;;;;;24.49;48.65;101090.53;4844366;29;45312;-87
2021/07/03 14:19:28;;;;;;;;;7.00;6.00;;;;;24.54;48.18;101086.84;4843979;29;45350;-87
2021/07/03 14:21:54;;;;;;;;;7.00;6.00;;;;;24.52;48.33;101085.06;4844969;29;45738;-82
2021/07/03 14:24:19;;;;;;;;;8.33;7.00;;;;;24.50;49.27;101078.00;4845054;29;45261;-80
2021/07/03 14:26:47;;;;;;;;;7.67;7.67;;;;;24.61;49.51;101083.88;4844995;29;45635;-80
2021/07/03 14:29:12;;;;;;;;;6.67;5.67;;;;;24.61;48.99;101083.00;4845099;29;45586;-80
2021/07/03 14:31:38;;;;;;;;;8.33;5.67;;;;;24.55;49.21;101078.72;4844591;29;46351;-78
2021/07/03 14:34:04;;;;;;;;;5.33;5.33;;;;;24.56;48.85;101079.59;4844677;29;45376;-80
2021/07/03 14:36:29;;;;;;;;;5.33;4.00;;;;;24.54;48.67;101079.63;4844582;29;45369;-77
2021/07/03 14:38:54;;;;;;;;;5.67;5.67;;;;;24.47;49.66;101070.91;4845376;29;45258;-80
2021/07/03 14:41:20;;;;;;;;;4.00;4.00;;;;;24.44;48.71;101070.16;4844302;29;45502;-81
2021/07/03 14:43:45;;;;;;;;;7.67;5.00;;;;;24.41;49.68;101076.50;4844616;29;45263;-80
2021/07/03 14:46:11;;;;;;;;;4.33;4.00;;;;;24.40;48.77;101078.34;4844787;29;45631;-80
2021/07/03 14:48:37;;;;;;;;;6.00;5.00;;;;;24.40;49.66;101066.72;4844981;29;45238;-81
2021/07/03 14:51:05;;;;;;;;;4.00;4.00;;;;;24.40;50.01;101066.72;4844495;29;46244;-80
2021/07/03 14:53:31;;;;;;;;;3.67;3.67;;;;;24.43;49.76;101069.28;4844432;29;45423;-80
2021/07/03 14:55:56;;;;;;;;;5.00;5.00;;;;;24.44;49.62;101068.34;4843196;29;46016;-80
2021/07/03 14:58:22;;;;;;;;;4.00;4.00;;;;;24.46;50.04;101073.66;4844727;29;45375;-82
2021/07/03 15:00:47;;;;;;;;;4.00;4.00;;;;;24.40;49.88;101070.28;4844556;29;47363;-86
2021/07/03 15:03:13;;;;;;;;;6.00;6.00;;;;;24.35;50.18;101066.88;4844900;29;45466;-87
2021/07/03 15:05:38;;;;;;;;;4.67;4.67;;;;;24.35;49.93;101063.28;4845217;29;45348;-85
2021/07/03 15:08:04;;;;;;;;;6.00;6.00;;;;;24.27;50.39;101052.84;4848473;29;45409;-86
2021/07/03 15:10:29;;;;;;;;;4.33;4.00;;;;;24.33;50.10;101067.84;4854203;29;46125;-87
2021/07/03 15:12:55;;;;;;;;;5.00;4.33;;;;;24.22;49.99;101049.41;4853187;29;45242;-87
2021/07/03 15:15:20;;;;;;;;;5.00;5.00;;;;;24.22;50.73;101049.41;4852170;29;45784;-87
2021/07/03 15:17:46;;;;;;;;;5.00;5.00;;;;;24.31;50.43;101065.22;4852277;29;45396;-89
2021/07/03 15:20:13;;;;;;;;;6.67;5.00;;;;;24.30;50.77;101055.44;4848658;29;45284;-86
2021/07/03 15:22:38;;;;;;;;;4.33;4.33;;;;;24.31;50.63;101065.22;4846602;29;45367;-86
2021/07/03 15:25:10;;;;;;;;;4.00;4.00;;;;;24.21;50.89;101055.72;4847627;29;45171;-89
2021/07/03 15:27:37;;;;;;;;;6.00;3.00;;;;;24.21;51.16;101058.38;4848388;29;45358;-88
2021/07/03 15:30:05;;;;;;;;;4.00;3.00;;;;;24.21;50.53;101061.06;4849776;29;45434;-84
2021/07/03 15:32:35;;;;;;;;;4.00;4.00;;;;;24.23;51.39;101060.13;4849536;29;45330;-88
2021/07/03 15:35:03;;;;;;;;;6.00;4.00;;;;;24.24;51.26;101055.66;4851472;29;45241;-83
2021/07/03 15:37:28;;;;;;;;;3.67;3.00;;;;;24.17;51.00;101053.13;4847737;29;45319;-88
2021/07/03 15:39:54;;;;;;;;;3.67;3.00;;;;;24.22;51.26;101070.91;4847546;29;45601;-86
2021/07/03 15:42:19;;;;;;;;;3.00;3.00;;;;;24.15;51.54;101062.19;4861722;29;45328;-88
2021/07/03 15:44:45;;;;;;;;;3.00;3.00;;;;;24.13;50.82;101053.28;4847668;29;45434;-86
2021/07/03 15:47:10;;;;;;;;;4.00;3.00;;;;;24.06;52.10;101044.56;4847505;29;45409;-86
2021/07/03 15:49:36;;;;;;;;;3.67;2.33;;;;;24.10;51.50;101056.97;4846098;29;47106;-87
2021/07/03 15:52:01;;;;;;;;;3.00;3.00;;;;;24.03;51.45;101055.41;4847462;29;45352;-88
2021/07/03 15:54:27;;;;;;;;;3.33;2.33;;;;;23.98;51.57;101042.16;4846981;29;45421;-87
2021/07/03 15:56:52;;;;;;;;;2.00;2.00;;;;;23.98;51.52;101050.22;4847512;29;45297;-87
2021/07/03 15:59:18;;;;;;;;;1.00;1.00;;;;;23.92;51.61;101039.69;4848236;29;45333;-88
2021/07/03 16:01:43;;;;;;;;;3.00;3.00;;;;;23.91;51.26;101045.97;4847877;29;45452;-90
2021/07/03 16:04:08;;;;;;;;;2.00;2.00;;;;;23.85;51.03;101033.63;4847595;29;45707;-85
2021/07/03 16:06:34;;;;;;;;;2.00;2.00;;;;;23.85;51.43;101047.06;4846374;29;45484;-89
2021/07/03 16:08:59;;;;;;;;;5.00;5.00;;;;;23.88;51.63;101046.09;4847070;29;45450;-88
2021/07/03 16:11:25;;;;;;;;;3.67;3.67;;;;;23.87;51.53;101053.25;4847352;29;45487;-87
2021/07/03 16:13:50;;;;;;;;;3.00;3.00;;;;;23.80;51.63;101039.16;4847155;29;45494;-88
2021/07/03 16:16:16;;;;;;;;;3.00;3.00;;;;;23.86;52.00;101047.94;4845893;29;45288;-83
2021/07/03 16:18:41;;;;;;;;;5.00;3.67;;;;;23.84;51.84;101050.66;4846873;29;45318;-83
2021/07/03 16:21:06;;;;;;;;;4.00;4.00;;;;;23.78;51.81;101043.69;4846683;29;45226;-85
2021/07/03 16:23:33;;;;;;;;;3.00;3.00;;;;;23.78;52.08;101045.50;4846849;29;45255;-83
2021/07/03 16:25:58;;;;;;;;;4.00;4.00;;;;;23.80;52.97;101049.00;4846719;29;45480;-83
2021/07/03 16:28:24;;;;;;;;;3.00;3.00;;;;;23.77;52.53;101050.00;4850346;29;46088;-86
2021/07/03 16:30:49;;;;;;;;;4.00;4.00;;;;;23.75;52.43;101049.19;4861034;29;45574;-80
2021/07/03 16:33:16;;;;;;;;;4.67;4.00;;;;;23.73;52.89;101043.00;4865381;29;45428;-81
2021/07/03 16:35:43;;;;;;;;;5.00;5.00;;;;;23.73;52.92;101042.09;4865191;29;45296;-82
2021/07/03 16:38:08;;;;;;;;;5.00;5.00;;;;;23.69;52.77;101038.66;4864859;29;45466;-82
2021/07/03 16:40:33;;;;;;;;;5.00;5.00;;;;;23.69;53.32;101044.88;4865542;29;45448;-84
2021/07/03 16:42:59;;;;;;;;;5.00;5.00;;;;;23.68;52.60;101035.09;4865535;29;45325;-81
2021/07/03 16:45:24;;;;;;;;;6.00;6.00;;;;;23.69;53.37;101031.47;4865360;29;45312;-80
2021/07/03 16:47:49;;;;;;;;;5.33;4.00;;;;;23.70;52.81;101026.97;4864921;29;45278;-85
2021/07/03 16:50:15;;;;;;;;;5.00;5.00;;;;;23.70;53.16;101027.84;4864827;29;45172;-82
2021/07/03 16:52:40;;;;;;;;;7.33;4.00;;;;;23.73;53.02;101013.47;4879548;29;45193;-83
2021/07/03 16:55:07;;;;;;;;;5.00;5.00;;;;;23.71;53.33;101005.44;4864949;29;45242;-81
2021/07/03 16:57:32;;;;;;;;;5.00;4.33;;;;;23.74;53.26;101015.22;4864487;29;46615;-86
2021/07/03 16:59:58;;;;;;;;;7.00;5.00;;;;;23.75;53.25;101011.63;4863367;29;45594;-81
2021/07/03 17:02:23;;;;;;;;;5.00;5.00;;;;;23.74;52.99;101011.63;4866171;29;45458;-86
2021/07/03 17:04:48;;;;;;;;;6.00;6.00;;;;;23.67;53.20;100997.56;4866440;29;45165;-83
2021/07/03 17:07:14;;;;;;;;;6.33;6.33;;;;;23.66;53.41;101002.06;4875126;29;45233;-80
2021/07/03 17:09:39;;;;;;;;;5.00;5.00;;;;;23.69;53.56;100996.56;4877129;29;45215;-79
2021/07/03 17:12:05;;;;;;;;;7.00;5.00;;;;;23.67;53.53;100986.84;4872731;29;45372;-84
2021/07/03 17:14:31;;;;;;;;;4.67;4.33;;;;;23.67;53.24;100990.38;4871118;29;45314;-82
2021/07/03 17:16:56;;;;;;;;;5.00;5.00;;;;;23.63;53.25;100994.09;4865356;29;45240;-82
2021/07/03 17:19:22;;;;;;;;;5.00;5.00;;;;;23.61;53.88;100987.91;4867245;29;45463;-81
2021/07/03 17:21:48;;;;;;;;;6.67;6.67;;;;;23.62;53.85;100984.31;4866272;29;45414;-81
2021/07/03 17:24:13;;;;;;;;;5.33;5.33;;;;;23.62;53.87;100978.94;4864881;29;45300;-84
2021/07/03 17:26:38;;;;;;;;;5.00;4.33;;;;;23.64;54.29;100982.44;4864310;29;46559;-82
2021/07/03 17:29:04;;;;;;;;;6.00;6.00;;;;;23.64;53.89;100979.75;4864631;29;45382;-84
2021/07/03 17:31:29;;;;;;;;;7.00;4.67;;;;;23.58;53.72;100985.34;4865031;29;45764;-82
2021/07/03 17:33:55;;;;;;;;;4.33;4.33;;;;;23.59;53.63;100984.38;4864599;29;45436;-85
2021/07/03 17:36:20;;;;;;;;;6.00;5.00;;;;;23.60;53.66;100994.22;4861347;29;46057;-81
2021/07/03 17:38:46;;;;;;;;;3.33;3.33;;;;;23.61;53.77;101001.31;4864390;29;45278;-82
2021/07/03 17:41:11;;;;;;;;;3.00;3.00;;;;;23.60;53.42;100995.06;4862795;29;45317;-82
2021/07/03 17:43:37;;;;;;;;;4.00;4.00;;;;;23.58;53.37;100994.25;4864432;29;45501;-87
2021/07/03 17:46:03;;;;;;;;;5.33;4.00;;;;;23.55;53.48;100985.44;4864512;29;45548;-87
2021/07/03 17:48:28;;;;;;;;;4.00;4.00;;;;;23.55;53.26;100985.44;4864638;29;45422;-87
2021/07/03 17:50:54;;;;;;;;;3.00;3.00;;;;;23.52;53.55;100980.19;4865281;29;45287;-87
2021/07/03 17:53:19;;;;;;;;;5.00;4.00;;;;;23.59;53.42;100997.81;4866692;29;45265;-86
2021/07/03 17:55:45;;;;;;;;;5.00;4.67;;;;;23.48;53.25;100977.59;4864284;29;45960;-86
2021/07/03 17:58:10;;;;;;;;;3.67;3.33;;;;;23.55;53.91;100994.34;4864232;29;45486;-87
2021/07/03 18:00:37;;;;;;;;;2.67;2.67;;;;;23.47;53.32;100969.59;4864049;29;45347;-86
2021/07/03 18:03:04;;;;;;;;;3.00;3.00;;;;;23.58;53.71;100985.34;4864543;29;45489;-86
2021/07/03 18:05:30;;;;;;;;;3.67;3.00;;;;;23.57;53.25;100984.44;4863683;29;45426;-87
2021/07/03 18:07:55;;;;;;;;;4.00;3.33;;;;;23.54;53.88;100973.81;4864337;29;45181;-88
2021/07/03 18:10:21;;;;;;;;;3.00;3.00;;;;;23.58;53.60;100988.03;4878951;29;45241;-87
2021/07/03 18:12:46;;;;;;;;;3.00;3.00;;;;;23.43;53.26;100979.53;4864900;29;45167;-88
2021/07/03 18:15:12;;;;;;;;;6.00;4.00;;;;;23.46;53.69;100986.59;4863920;29;46614;-87
2021/07/03 18:17:38;;;;;;;;;6.00;5.00;;;;;23.39;53.36;100979.66;4877992;29;45701;-87
2021/07/03 18:20:05;;;;;;;;;8.00;4.33;;;;;23.39;53.59;100987.72;4863272;29;45371;-88